Time;durP1;ratioP1;P1;durP2;ratioP2;P2;SDS_P1;SDS_P2;PMS_P1;PMS_P2;Temp;Humidity;BMP_temperature;BMP_pressure;BME280_temperature;BME280_humidity;BME280_pressure;Samples;Min_cycle;Max_cycle;Signal;HPM_P1;HPM_P2
2021/05/12 00:02:21;;;;;;;1.17;0.30;;;15.60;99.90;;;14.98;87.01;99765.72;5028294;28;20056;-51
2021/05/12 00:04:47;;;;;;;1.50;0.35;;;15.50;99.90;;;14.96;86.81;99762.47;5011409;28;20050;-49
2021/05/12 00:07:13;;;;;;;3.85;0.52;;;15.50;99.90;;;15.01;86.87;99767.94;5009084;28;20482;-51
2021/05/12 00:09:39;;;;;;;1.35;0.70;;;15.50;99.90;;;14.99;87.60;99777.81;5014586;28;20186;-52
2021/05/12 00:12:07;;;;;;;1.63;0.85;;;15.50;99.90;;;14.86;88.69;99768.03;5013223;28;20046;-48
2021/05/12 00:14:33;;;;;;;3.95;0.63;;;15.50;99.90;;;14.82;89.51;99764.97;5012841;28;20566;-48
2021/05/12 00:17:00;;;;;;;1.88;0.57;;;15.40;99.90;;;14.81;89.36;99775.66;5009388;28;20037;-46
2021/05/12 00:19:28;;;;;;;5.13;0.55;;;15.40;99.90;;;14.79;89.58;99760.09;5012960;28;20065;-52
2021/05/12 00:22:17;;;;;;;2.10;0.50;;;15.40;99.90;;;14.78;89.86;99760.28;5009265;28;20120;-49
2021/05/12 00:24:40;;;;;;;3.30;0.50;;;15.40;99.90;;;14.80;90.32;99763.53;5014685;28;20519;-51
2021/05/12 00:27:07;;;;;;;2.70;1.60;;;15.40;99.90;;;14.76;90.27;99757.84;5015752;28;20119;-47
2021/05/12 00:29:33;;;;;;;2.55;0.50;;;15.40;99.90;;;14.74;90.77;99751.97;5015081;28;20104;-48
2021/05/12 00:31:59;;;;;;;1.00;0.60;;;15.30;99.90;;;14.76;90.78;99749.97;5008989;28;20663;-47
2021/05/12 00:34:26;;;;;;;1.02;0.50;;;15.30;99.90;;;14.78;90.47;99745.38;4992926;28;20176;-47
2021/05/12 00:36:52;;;;;;;1.65;0.75;;;15.40;99.90;;;14.83;90.16;99740.38;5009266;28;20087;-45
2021/05/12 00:39:17;;;;;;;3.55;0.50;;;15.40;99.90;;;14.79;89.99;99733.88;5021875;28;20037;-46
2021/05/12 00:41:43;;;;;;;1.70;0.50;;;15.40;99.90;;;14.82;89.86;99730.88;5020462;28;20354;-48
2021/05/12 00:44:30;;;;;;;2.53;0.60;;;15.40;99.90;;;14.80;90.84;99730.25;5008908;28;20029;-52
2021/05/12 00:47:01;;;;;;;2.55;0.50;;;15.40;99.90;;;14.78;90.20;99724.38;5018009;28;20168;-48
2021/05/12 00:49:27;;;;;;;2.85;0.63;;;15.30;99.90;;;14.72;89.20;99725.13;5007494;28;20073;-52
2021/05/12 00:51:53;;;;;;;1.08;0.20;;;15.30;99.90;;;14.73;88.37;99726.75;5028388;28;20056;-51
2021/05/12 00:54:19;;;;;;;2.25;0.30;;;15.30;99.90;;;14.75;87.84;99716.09;5019390;28;20041;-51
2021/05/12 00:56:45;;;;;;;2.85;0.25;;;15.30;99.90;;;14.75;87.44;99708.22;5011828;28;20045;-49
2021/05/12 00:59:11;;;;;;;2.53;0.30;;;15.30;99.90;;;14.74;87.33;99715.28;5011071;28;20136;-51
2021/05/12 01:01:38;;;;;;;4.00;0.30;;;15.20;99.90;;;14.76;86.60;99715.91;5009257;28;20072;-50
2021/05/12 01:04:07;;;;;;;3.17;0.30;;;15.20;99.90;;;14.72;87.37;99719.88;5011707;28;20050;-52
2021/05/12 01:06:39;;;;;;;3.55;0.50;;;15.30;99.90;;;14.71;88.04;99715.66;4991143;28;20034;-51
2021/05/12 01:09:09;;;;;;;1.38;0.55;;;15.30;99.90;;;14.70;89.05;99710.59;5013371;28;20106;-50
2021/05/12 01:11:36;;;;;;;1.77;0.70;;;15.30;99.90;;;14.68;89.48;99705.53;5012241;28;20133;-47
2021/05/12 01:14:03;;;;;;;2.45;1.08;;;15.20;99.90;;;14.69;90.37;99715.03;5011040;28;20191;-45
2021/05/12 01:16:29;;;;;;;6.18;0.85;;;15.20;99.90;;;14.68;90.73;99708.16;5025947;28;20130;-48
2021/05/12 01:18:55;;;;;;;2.42;0.60;;;15.20;99.90;;;14.68;90.73;99707.34;5027238;28;20038;-52
2021/05/12 01:21:21;;;;;;;2.08;1.00;;;15.20;99.90;;;14.71;90.30;99701.72;5028020;28;20040;-47
2021/05/12 01:23:49;;;;;;;3.80;0.63;;;15.20;99.90;;;14.72;90.11;99706.78;5016693;28;20038;-51
2021/05/12 01:26:22;;;;;;;2.45;0.98;;;15.20;99.90;;;14.71;90.29;99702.53;5014212;28;20037;-49
2021/05/12 01:28:55;;;;;;;2.40;1.45;;;15.30;99.90;;;14.69;90.82;99696.66;5027488;28;20085;-51
2021/05/12 01:31:33;;;;;;;5.88;1.30;;;15.30;99.90;;;14.68;91.29;99691.63;5012612;28;20103;-49
2021/05/12 01:34:01;;;;;;;2.40;0.63;;;15.20;99.90;;;14.67;91.46;99680.31;5008287;28;20041;-50
2021/05/12 01:36:30;;;;;;;3.28;0.80;;;15.20;99.90;;;14.73;91.38;99684.00;5016076;28;20050;-49
2021/05/12 01:38:57;;;;;;;1.58;0.63;;;15.30;99.90;;;14.78;91.35;99686.84;5020671;28;20053;-51
2021/05/12 01:41:26;;;;;;;1.45;0.60;;;15.30;99.90;;;14.77;90.93;99686.06;5011600;28;20038;-50
2021/05/12 01:43:52;;;;;;;2.88;0.90;;;15.30;99.90;;;14.66;90.98;99683.94;5012029;28;20044;-51
2021/05/12 01:46:19;;;;;;;1.45;0.60;;;15.30;99.90;;;14.62;91.23;99695.84;5012886;28;20061;-44
2021/05/12 01:48:45;;;;;;;2.45;0.40;;;15.20;99.90;;;14.63;90.71;99684.34;5015352;28;20445;-46
2021/05/12 01:51:13;;;;;;;2.35;0.80;;;15.20;99.90;;;14.65;90.60;99686.78;5013928;28;20454;-44
2021/05/12 01:53:41;;;;;;;2.25;0.60;;;15.20;99.90;;;14.69;90.51;99682.75;5015602;28;20067;-51
2021/05/12 01:56:08;;;;;;;3.97;0.70;;;15.20;99.90;;;14.56;90.66;99671.19;5012278;28;20030;-49
2021/05/12 01:58:35;;;;;;;1.05;0.70;;;15.20;99.90;;;14.55;90.40;99671.38;5015444;28;20036;-47
2021/05/12 02:01:01;;;;;;;1.23;0.55;;;15.10;99.90;;;14.52;89.88;99669.13;5013204;28;20441;-51
2021/05/12 02:03:27;;;;;;;4.15;0.65;;;15.10;99.90;;;14.46;90.17;99662.03;5027910;28;20117;-50
2021/05/12 02:05:55;;;;;;;3.90;0.55;;;15.00;99.90;;;14.47;89.88;99664.44;5030892;28;20120;-49
2021/05/12 02:08:24;;;;;;;2.00;0.47;;;15.00;99.90;;;14.43;89.91;99663.19;5028848;28;20067;-51
2021/05/12 02:10:58;;;;;;;3.90;0.47;;;15.00;99.90;;;14.44;89.87;99661.41;5012015;28;20362;-48
2021/05/12 02:13:25;;;;;;;3.67;0.80;;;15.00;99.90;;;14.45;89.45;99661.22;5018426;28;20156;-48
2021/05/12 02:15:52;;;;;;;1.85;0.50;;;14.90;99.90;;;14.41;89.87;99651.25;5011853;28;20397;-51
2021/05/12 02:18:19;;;;;;;2.80;0.60;;;14.90;99.90;;;14.43;89.92;99646.66;5011497;28;20182;-53
2021/05/12 02:20:45;;;;;;;3.08;0.50;;;14.90;99.90;;;14.45;89.89;99644.66;5011607;28;20026;-49
2021/05/12 02:23:14;;;;;;;1.92;0.70;;;15.00;99.90;;;14.46;89.73;99643.66;5018004;28;20038;-47
2021/05/12 02:25:41;;;;;;;3.05;0.60;;;15.00;99.90;;;14.45;89.90;99644.66;5015299;28;20125;-51
2021/05/12 02:28:08;;;;;;;2.83;0.70;;;15.00;99.90;;;14.45;89.89;99644.66;5014710;28;20513;-51
2021/05/12 02:30:35;;;;;;;1.15;0.40;;;15.00;99.90;;;14.45;89.91;99645.47;5011134;28;20107;-52
2021/05/12 02:33:01;;;;;;;3.65;0.60;;;15.00;99.90;;;14.43;89.82;99646.66;5014178;28;20072;-47
2021/05/12 02:35:27;;;;;;;2.95;0.52;;;15.00;99.90;;;14.31;90.13;99646.31;5011475;28;20050;-51
2021/05/12 02:37:54;;;;;;;2.80;0.50;;;14.90;99.90;;;14.22;90.09;99639.59;5014804;28;20104;-48
2021/05/12 02:42:57;;;;;;;2.38;0.75;;;14.70;99.90;;;14.02;90.86;99634.19;4972308;22;20560;-50
2021/05/12 02:45:23;;;;;;;3.60;0.50;;;14.60;99.90;;;14.00;90.96;99640.59;4988918;28;20035;-51
2021/05/12 02:47:59;;;;;;;2.58;0.70;;;14.60;99.90;;;14.02;90.91;99634.19;4991322;28;20034;-48
2021/05/12 02:50:37;;;;;;;2.65;0.52;;;14.60;99.90;;;13.98;91.81;99630.31;4990414;28;20042;-51
2021/05/12 02:53:06;;;;;;;1.67;0.50;;;14.50;99.90;;;13.94;91.19;99634.31;4987035;28;20049;-49
2021/05/12 02:55:34;;;;;;;1.80;0.50;;;14.50;99.90;;;13.93;91.36;99640.53;4988721;28;20100;-51
2021/05/12 02:58:04;;;;;;;1.95;0.57;;;14.50;99.90;;;13.95;91.50;99631.50;4990223;28;20104;-50
2021/05/12 03:00:30;;;;;;;2.03;0.50;;;14.50;99.90;;;13.93;91.41;99619.59;4990901;28;20814;-52
2021/05/12 03:02:58;;;;;;;2.50;0.52;;;14.50;99.90;;;13.98;91.16;99616.41;4990144;28;20038;-52
2021/05/12 03:05:25;;;;;;;2.45;0.50;;;14.50;99.90;;;13.94;91.50;99608.94;4990621;28;20041;-52
2021/05/12 03:07:51;;;;;;;8.55;2.40;;;14.50;99.90;;;13.92;91.40;99610.91;4990049;28;20038;-47
2021/05/12 03:10:20;;;;;;;3.20;0.50;;;14.50;99.90;;;13.93;90.97;99599.44;4989917;28;20104;-51
2021/05/12 03:12:46;;;;;;;1.65;0.45;;;14.50;99.90;;;13.97;91.00;99599.88;4989250;28;20034;-47
2021/05/12 03:15:17;;;;;;;3.20;0.50;;;14.50;99.90;;;14.00;90.84;99591.66;4990412;28;20096;-49
2021/05/12 03:17:43;;;;;;;3.08;0.50;;;14.60;99.90;;;13.98;90.92;99592.84;4989756;28;20030;-53
2021/05/12 03:20:10;;;;;;;1.40;0.50;;;14.60;99.90;;;14.01;91.40;99584.63;4990665;28;20030;-48
2021/05/12 03:22:36;;;;;;;2.28;0.60;;;14.50;99.90;;;14.00;91.51;99589.03;4989638;28;20046;-53
2021/05/12 03:25:02;;;;;;;2.15;0.50;;;14.60;99.90;;;14.02;91.41;99594.91;4972108;28;20434;-54
2021/05/12 03:27:28;;;;;;;5.88;0.60;;;14.60;99.90;;;14.06;91.14;99587.47;4989087;28;20026;-53
2021/05/12 03:29:54;;;;;;;4.85;0.60;;;14.60;99.90;;;14.08;91.19;99594.16;4990177;28;20517;-51
2021/05/12 03:32:20;;;;;;;3.17;0.52;;;14.60;99.90;;;14.10;91.54;99601.81;4989226;28;20038;-52
2021/05/12 03:34:46;;;;;;;2.40;0.60;;;14.70;99.90;;;14.09;91.88;99614.09;4990631;28;20038;-53
2021/05/12 03:37:12;;;;;;;4.50;0.57;;;14.70;99.90;;;14.02;92.48;99610.63;4989888;28;20034;-52
2021/05/12 03:39:38;;;;;;;1.65;0.80;;;14.60;99.90;;;14.06;92.85;99617.09;4989144;28;20045;-48
2021/05/12 03:42:04;;;;;;;2.88;0.70;;;14.70;99.90;;;14.04;92.65;99618.28;4989660;28;20050;-47
2021/05/12 03:44:30;;;;;;;2.20;0.50;;;14.70;99.90;;;14.04;92.46;99615.66;4988587;28;20089;-50
2021/05/12 03:46:56;;;;;;;2.28;0.82;;;14.60;99.90;;;14.02;92.93;99609.81;4990590;28;20042;-50
2021/05/12 03:49:22;;;;;;;3.15;0.80;;;14.60;99.90;;;14.02;92.93;99612.41;4989478;28;20452;-50
2021/05/12 03:51:48;;;;;;;2.78;0.52;;;14.60;99.90;;;14.06;93.09;99613.66;4990281;28;20049;-49
2021/05/12 03:54:14;;;;;;;4.32;1.05;;;14.60;99.90;;;14.09;92.99;99621.16;4987488;28;20328;-51
2021/05/12 03:56:40;;;;;;;714.88;85.10;;;14.70;99.90;;;14.11;93.01;99622.59;4990226;28;20042;-51
2021/05/12 03:59:06;;;;;;;6.38;1.15;;;14.70;99.90;;;14.05;92.89;99623.34;4987507;28;20043;-54
2021/05/12 04:01:31;;;;;;;1.65;0.22;;;14.60;99.90;;;14.05;92.95;99631.19;4989633;28;20034;-49
2021/05/12 04:03:58;;;;;;;3.70;0.30;;;14.60;99.90;;;14.04;92.61;99639.25;4988298;28;20042;-50
2021/05/12 04:06:24;;;;;;;0.52;0.20;;;14.60;99.90;;;13.99;92.68;99634.56;4989395;28;20049;-50
2021/05/12 04:08:50;;;;;;;1.33;0.20;;;14.60;99.90;;;13.95;92.79;99634.13;4988522;28;20038;-53
2021/05/12 04:11:16;;;;;;;0.52;0.10;;;14.60;99.90;;;13.97;92.74;99647.03;4989905;28;20043;-53
2021/05/12 04:13:42;;;;;;;2.17;0.17;;;14.60;99.90;;;13.97;92.46;99652.25;4988110;28;20053;-53
2021/05/12 04:16:08;;;;;;;0.85;0.13;;;14.60;99.90;;;13.99;92.40;99646.84;4989350;28;20040;-52
2021/05/12 04:18:34;;;;;;;9.93;0.20;;;14.50;99.90;;;13.96;91.98;99650.63;4988661;28;20038;-46
2021/05/12 04:20:59;;;;;;;1.52;0.15;;;14.50;99.90;;;13.96;91.97;99653.25;4988077;28;20038;-48
2021/05/12 04:23:25;;;;;;;0.52;0.10;;;14.60;99.90;;;13.94;92.04;99650.81;4987666;28;20441;-53
2021/05/12 04:25:51;;;;;;;1.05;0.10;;;14.50;99.90;;;13.92;92.10;99665.09;4988637;28;20096;-49
2021/05/12 04:28:17;;;;;;;2.15;0.20;;;14.50;99.90;;;13.92;91.95;99660.69;4988743;28;20042;-49
2021/05/12 04:30:43;;;;;;;2.38;0.20;;;14.50;99.90;;;13.92;91.81;99671.16;4988291;28;20022;-52
2021/05/12 04:33:09;;;;;;;2.10;0.10;;;14.50;99.90;;;13.91;91.59;99669.53;4988784;28;20034;-49
2021/05/12 04:35:35;;;;;;;0.50;0.15;;;14.50;99.90;;;13.90;91.40;99669.72;4988792;28;20057;-50
2021/05/12 04:38:01;;;;;;;0.47;0.10;;;14.50;99.90;;;13.96;91.42;99671.59;4987844;28;20914;-52
2021/05/12 04:40:28;;;;;;;0.73;0.10;;;14.50;99.90;;;14.00;91.25;99675.47;4988600;28;20031;-52
2021/05/12 04:42:53;;;;;;;3.08;0.32;;;14.60;99.90;;;14.00;91.14;99672.03;4988166;28;20093;-52
2021/05/12 04:45:20;;;;;;;1.13;0.20;;;14.60;99.90;;;13.91;90.95;99677.38;4987718;28;20039;-49
2021/05/12 04:47:57;;;;;;;1.55;0.10;;;14.60;99.90;;;13.83;91.08;99681.91;4988852;28;20030;-49
2021/05/12 04:50:30;;;;;;;1.15;0.08;;;14.50;99.90;;;13.79;91.05;99686.69;4989052;28;20462;-48
2021/05/12 04:52:57;;;;;;;0.52;0.10;;;14.40;99.90;;;13.77;90.96;99690.50;4988803;28;20026;-51
2021/05/12 04:55:23;;;;;;;1.15;0.10;;;14.30;99.90;;;13.76;90.90;99688.88;4986172;28;20038;-52
2021/05/12 04:57:49;;;;;;;3.88;0.82;;;14.40;99.90;;;13.76;90.93;99687.06;4987238;28;20026;-51
2021/05/12 05:00:19;;;;;;;0.35;0.10;;;14.40;99.90;;;13.79;90.78;99691.94;4985952;28;20469;-49
2021/05/12 05:02:45;;;;;;;1.48;0.10;;;14.40;99.90;;;13.84;90.43;99694.00;4986605;28;20108;-52
2021/05/12 05:05:14;;;;;;;1.23;0.20;;;14.40;99.90;;;13.88;90.58;99705.75;4988499;28;20038;-51
2021/05/12 05:07:40;;;;;;;3.35;0.28;;;14.40;99.90;;;13.93;90.78;99708.63;4987524;28;20343;-51
2021/05/12 05:10:07;;;;;;;1.00;0.30;;;14.50;99.90;;;13.93;90.91;99706.00;4987651;28;20511;-50
2021/05/12 05:12:33;;;;;;;2.30;0.22;;;14.50;99.90;;;13.97;90.70;99712.50;4988137;28;20026;-46
2021/05/12 05:14:59;;;;;;;1.40;0.20;;;14.60;99.90;;;14.04;90.91;99712.56;4987576;28;20183;-49
2021/05/12 05:17:28;;;;;;;1.63;0.30;;;14.60;99.90;;;14.02;90.89;99709.31;4987487;28;20037;-45
2021/05/12 05:19:55;;;;;;;1.08;0.20;;;14.60;99.90;;;14.00;90.91;99703.47;4988192;28;20034;-49
2021/05/12 05:22:23;;;;;;;1.23;0.20;;;14.60;99.90;;;14.06;90.66;99703.53;4970353;28;20183;-49
2021/05/12 05:24:49;;;;;;;2.47;0.20;;;14.60;99.90;;;14.10;89.86;99704.78;4986595;28;20125;-51
2021/05/12 05:27:15;;;;;;;0.55;0.20;;;14.60;99.90;;;14.08;89.80;99701.53;4970004;28;20141;-53
2021/05/12 05:29:41;;;;;;;0.40;0.10;;;14.60;99.90;;;14.11;89.72;99705.59;4987727;28;20252;-52
2021/05/12 05:32:07;;;;;;;0.80;0.20;;;14.70;99.90;;;14.10;89.75;99704.78;4970919;28;20034;-51
2021/05/12 05:34:33;;;;;;;1.42;0.20;;;14.70;99.90;;;14.13;89.76;99707.03;4987784;28;20145;-50
2021/05/12 05:36:59;;;;;;;1.05;0.15;;;14.70;99.90;;;14.14;89.69;99708.66;4987876;28;20074;-50
2021/05/12 05:39:25;;;;;;;1.52;0.20;;;14.70;99.90;;;14.17;89.83;99710.09;4986163;28;20053;-50
2021/05/12 05:41:55;;;;;;;3.03;0.20;;;14.70;99.90;;;14.19;90.05;99698.41;4988284;28;20042;-52
2021/05/12 05:44:23;;;;;;;6.63;0.30;;;14.80;99.90;;;14.29;89.42;99696.28;4986366;28;20050;-50
2021/05/12 05:46:49;;;;;;;0.40;0.10;;;14.80;99.90;;;14.32;88.51;99702.16;4985647;28;20062;-47
2021/05/12 05:49:16;;;;;;;1.67;0.10;;;14.80;99.90;;;14.44;87.94;99708.56;4987515;28;20110;-47
2021/05/12 05:51:42;;;;;;;1.80;0.20;;;14.90;99.90;;;14.45;87.74;99704.94;4988314;28;20180;-49
2021/05/12 05:54:07;;;;;;;0.47;0.10;;;15.00;99.90;;;14.54;87.77;99707.25;4987160;28;20405;-51
2021/05/12 05:56:33;;;;;;;2.03;0.20;;;15.10;99.90;;;14.62;88.10;99706.31;4988422;28;20030;-53
2021/05/12 05:58:59;;;;;;;2.08;0.20;;;15.20;99.90;;;14.69;88.51;99712.41;4987361;28;20385;-53
2021/05/12 06:01:25;;;;;;;0.90;0.22;;;15.20;99.90;;;14.66;88.54;99707.53;4987664;28;20086;-52
2021/05/12 06:03:51;;;;;;;0.98;0.20;;;15.20;99.90;;;14.69;88.99;99701.09;4986069;28;20046;-50
2021/05/12 06:06:17;;;;;;;0.98;0.50;;;15.20;99.90;;;14.77;89.34;99707.03;4987870;28;20478;-52
2021/05/12 06:08:43;;;;;;;1.08;0.40;;;15.30;99.90;;;14.78;89.18;99707.84;4983517;28;20074;-52
2021/05/12 06:11:10;;;;;;;0.88;0.43;;;15.30;99.90;;;14.85;89.26;99712.13;4968003;28;20027;-48
2021/05/12 06:13:36;;;;;;;1.70;0.20;;;15.40;99.90;;;14.82;89.15;99707.28;4987741;28;20038;-51
2021/05/12 06:16:05;;;;;;;1.00;0.20;;;15.40;99.90;;;14.79;88.61;99710.28;4986328;28;20034;-50
2021/05/12 06:18:31;;;;;;;1.00;0.17;;;15.40;99.90;;;14.76;88.71;99709.84;4968944;28;20501;-46
2021/05/12 06:20:57;;;;;;;0.70;0.10;;;15.40;99.90;;;14.83;87.87;99716.75;4986973;28;20038;-50
2021/05/12 06:23:23;;;;;;;0.70;0.10;;;15.40;99.90;;;14.91;87.07;99724.50;4968562;28;20031;-51
2021/05/12 06:25:52;;;;;;;0.20;0.10;;;15.40;99.90;;;14.93;87.14;99726.94;4968779;28;20162;-51
2021/05/12 06:28:19;;;;;;;1.15;0.17;;;15.50;99.90;;;15.00;87.66;99732.22;4978960;28;20491;-53
2021/05/12 06:30:50;;;;;;;0.65;0.10;;;15.60;99.90;;;15.10;87.47;99730.91;4990142;28;20042;-51
2021/05/12 06:33:17;;;;;;;1.70;0.20;;;15.70;99.90;;;15.19;87.37;99721.03;4991470;28;20128;-48
2021/05/12 06:35:44;;;;;;;0.45;0.10;;;15.70;99.90;;;15.22;87.58;99718.03;4990059;28;20461;-50
2021/05/12 06:38:10;;;;;;;0.50;0.20;;;15.80;99.90;;;15.29;87.51;99721.50;4990972;28;20086;-51
2021/05/12 06:40:37;;;;;;;0.65;0.25;;;15.90;99.90;;;15.40;87.39;99736.72;4987225;28;20030;-52
2021/05/12 06:43:06;;;;;;;2.00;0.30;;;16.00;99.90;;;15.45;87.21;99750.09;4988918;28;20486;-52
2021/05/12 06:45:32;;;;;;;1.65;1.30;;;16.00;99.90;;;15.40;86.84;99741.97;4990355;28;20081;-52
2021/05/12 06:47:58;;;;;;;2.92;0.70;;;16.10;99.90;;;15.51;86.48;99732.75;4990859;28;20477;-51
2021/05/12 06:50:25;;;;;;;2.33;0.20;;;16.10;99.90;;;15.58;85.60;99721.31;4991004;28;20018;-51
2021/05/12 06:52:58;;;;;;;1.02;0.20;;;16.20;99.90;;;15.73;85.26;99725.59;4991185;28;20088;-50
2021/05/12 06:55:26;;;;;;;3.50;0.10;;;16.30;99.90;;;15.92;84.23;99722.25;4987882;28;20544;-47
2021/05/12 06:57:52;;;;;;;2.15;0.00;;;16.40;99.90;;;16.08;83.15;99721.88;4989132;28;20482;-49
2021/05/12 07:00:22;;;;;;;0.40;0.10;;;16.60;99.90;;;16.09;81.99;99712.97;4990468;28;20030;-48
2021/05/12 07:02:48;;;;;;;0.75;0.15;;;16.60;99.90;;;16.21;81.30;99710.59;4990710;28;20045;-48
2021/05/12 07:05:15;;;;;;;1.13;0.20;;;16.70;99.90;;;16.30;81.85;99724.38;4990791;28;20042;-50
2021/05/12 07:07:44;;;;;;;1.00;0.10;;;16.80;99.90;;;16.55;81.66;99722.75;4990779;28;20518;-47
2021/05/12 07:10:11;;;;;;;0.45;0.10;;;17.10;99.90;;;16.70;81.39;99719.97;4990627;28;20038;-50
2021/05/12 07:12:37;;;;;;;0.30;0.10;;;17.30;99.90;;;16.64;81.49;99713.69;4990787;28;20120;-49
2021/05/12 07:15:06;;;;;;;0.40;0.10;;;17.30;99.90;;;16.73;81.26;99723.00;4990544;28;20082;-50
2021/05/12 07:17:32;;;;;;;2.13;0.10;;;17.30;99.90;;;16.77;81.27;99726.88;4990734;28;20078;-49
2021/05/12 07:19:58;;;;;;;0.30;0.10;;;17.40;99.90;;;16.74;81.28;99721.19;4990484;28;20065;-51
2021/05/12 07:22:25;;;;;;;0.10;0.00;;;17.40;99.90;;;16.68;81.93;99733.31;4990567;28;20030;-50
2021/05/12 07:24:52;;;;;;;2.63;0.00;;;17.40;99.90;;;16.73;81.90;99725.66;4990744;28;20446;-50
2021/05/12 07:27:19;;;;;;;0.20;0.10;;;17.40;99.90;;;16.84;81.95;99729.50;4990470;28;20049;-50
2021/05/12 07:29:45;;;;;;;0.68;0.10;;;17.40;99.90;;;16.89;81.37;99733.16;4990262;28;20383;-50
2021/05/12 07:32:11;;;;;;;1.75;0.20;;;17.50;99.90;;;16.82;81.54;99745.47;4990773;28;20038;-52
2021/05/12 07:34:37;;;;;;;0.50;0.13;;;17.40;99.90;;;16.83;81.58;99741.84;4990592;28;20406;-48
2021/05/12 07:37:05;;;;;;;0.70;0.10;;;17.50;99.90;;;16.80;81.56;99731.72;4990438;28;20030;-52
2021/05/12 07:39:31;;;;;;;0.10;0.10;;;17.50;99.90;;;16.78;81.50;99735.56;4990110;28;20056;-50
2021/05/12 07:42:03;;;;;;;0.45;0.00;;;17.50;99.90;;;16.95;81.11;99739.41;4989357;28;20050;-49
2021/05/12 07:44:29;;;;;;;0.60;0.10;;;17.60;99.90;;;17.03;80.38;99733.91;4989977;28;20042;-51
2021/05/12 07:46:55;;;;;;;0.75;0.10;;;17.70;99.90;;;17.38;79.61;99729.22;4989306;28;20466;-50
2021/05/12 07:49:21;;;;;;;0.57;0.10;;;18.00;99.90;;;17.83;77.95;99730.13;4989798;28;20035;-50
2021/05/12 07:51:47;;;;;;;0.95;0.03;;;18.40;99.90;;;18.27;76.12;99717.09;4970852;28;20042;-53
2021/05/12 07:54:14;;;;;;;0.80;0.20;;;18.90;99.90;;;18.58;75.29;99719.72;4987182;28;20031;-49
2021/05/12 07:56:40;;;;;;;0.13;0.00;;;19.30;99.90;;;19.03;73.65;99711.66;4988906;28;20386;-46
2021/05/12 07:59:06;;;;;;;0.10;0.00;;;19.70;99.90;;;19.18;73.40;99720.84;4989718;28;20663;-44
2021/05/12 08:01:40;;;;;;;0.20;0.00;;;20.00;99.90;;;19.31;72.32;99722.56;4971997;28;20034;-45
2021/05/12 08:04:06;;;;;;;0.77;0.05;;;20.20;99.90;;;19.56;71.66;99717.22;4972939;28;20041;-49
2021/05/12 08:06:32;;;;;;;0.22;0.00;;;20.30;99.90;;;19.65;71.27;99715.09;4989588;28;20038;-47
2021/05/12 08:08:57;;;;;;;1.05;0.10;;;20.50;99.90;;;19.71;71.14;99719.50;4990036;28;20038;-47
2021/05/12 08:11:23;;;;;;;0.00;0.00;;;20.70;99.90;;;19.61;71.21;99709.44;4989291;28;20556;-49
2021/05/12 08:13:52;;;;;;;0.30;0.00;;;20.50;99.90;;;19.51;70.57;99707.31;4989518;28;20376;-50
2021/05/12 08:16:18;;;;;;;0.08;0.00;;;20.40;99.90;;;19.30;71.14;99714.84;4989275;28;20041;-44
2021/05/12 08:18:44;;;;;;;1.73;0.00;;;20.10;99.90;;;19.00;71.17;99712.09;4989860;28;20034;-47
2021/05/12 08:21:10;;;;;;;0.38;0.00;;;19.80;99.90;;;19.02;71.18;99718.75;4989642;28;20034;-47
2021/05/12 08:23:37;;;;;;;0.10;0.00;;;19.80;99.90;;;18.93;71.81;99727.19;4989228;28;20572;-48
2021/05/12 08:26:03;;;;;;;0.10;0.00;;;19.80;99.90;;;18.83;71.13;99723.22;4989088;28;20035;-52
2021/05/12 08:28:29;;;;;;;0.50;0.10;;;19.70;99.90;;;19.01;71.06;99727.72;4987531;28;20041;-49
2021/05/12 08:30:56;;;;;;;2.17;0.00;;;19.80;99.90;;;19.38;70.86;99728.56;4989608;28;20038;-52
2021/05/12 08:33:25;;;;;;;0.38;0.08;;;20.10;99.90;;;19.53;70.93;99721.13;4989037;28;20062;-46
2021/05/12 08:35:52;;;;;;;0.00;0.00;;;20.30;99.90;;;19.69;70.19;99726.84;4988997;28;20427;-52
2021/05/12 08:38:24;;;;;;;0.20;0.00;;;20.60;99.90;;;20.09;69.17;99727.94;4988882;28;20094;-51
2021/05/12 08:40:53;;;;;;;1.23;0.00;;;20.80;99.90;;;20.58;68.14;99727.88;4988960;28;20466;-50
2021/05/12 08:43:20;;;;;;;0.20;0.08;;;21.30;99.90;;;20.77;66.91;99724.13;4987156;28;20042;-49
2021/05/12 08:45:47;;;;;;;0.32;0.00;;;21.60;99.90;;;20.99;66.38;99729.63;4988727;28;20505;-51
2021/05/12 08:48:17;;;;;;;0.17;0.00;;;21.90;99.90;;;21.10;65.77;99719.06;4988972;28;20034;-47
2021/05/12 08:50:46;;;;;;;0.00;0.00;;;22.10;99.90;;;21.08;65.50;99718.47;4987406;28;20042;-50
2021/05/12 08:53:13;;;;;;;1.75;0.00;;;22.20;99.90;;;20.81;64.89;99715.47;4986362;28;20154;-52
2021/05/12 08:55:39;;;;;;;0.10;0.00;;;22.00;99.90;;;20.88;65.15;99716.16;4988972;28;20044;-52
2021/05/12 08:58:06;;;;;;;0.10;0.00;;;21.90;99.90;;;20.99;64.99;99724.34;4986586;28;20048;-50
2021/05/12 09:00:33;;;;;;;0.52;0.00;;;22.00;99.90;;;20.91;65.74;99724.69;4987167;28;20120;-51
2021/05/12 09:03:00;;;;;;;0.30;0.00;;;21.90;99.90;;;20.57;66.41;99721.78;4988797;28;20053;-53
2021/05/12 09:05:28;;;;;;;0.95;0.00;;;21.70;99.90;;;20.32;67.53;99726.41;4988479;28;20034;-53
2021/05/12 09:07:55;;;;;;;0.88;0.10;;;21.40;99.90;;;19.99;68.49;99726.84;4987335;28;20469;-49
2021/05/12 09:10:22;;;;;;;1.48;0.00;;;21.00;99.90;;;19.59;69.64;99734.47;4986187;28;20085;-49
2021/05/12 09:12:56;;;;;;;1.20;0.10;;;20.80;99.90;;;19.55;69.75;99726.19;4986895;28;20406;-50
2021/05/12 09:15:26;;;;;;;0.57;0.10;;;20.50;99.90;;;19.60;69.52;99736.09;4987745;28;20050;-45
2021/05/12 09:17:54;;;;;;;0.30;0.00;;;20.50;99.90;;;19.77;69.33;99739.75;4987642;28;20136;-52
2021/05/12 09:20:20;;;;;;;2.15;0.10;;;20.50;99.90;;;20.00;68.45;99739.84;4987476;28;20034;-52
2021/05/12 09:22:59;;;;;;;0.68;0.10;;;20.60;99.90;;;19.88;68.20;99742.44;4985777;28;20057;-51
2021/05/12 09:25:29;;;;;;;0.20;0.00;;;20.70;99.90;;;19.71;68.84;99746.72;4982672;28;20050;-50
2021/05/12 09:28:19;;;;;;;0.40;0.00;;;20.60;99.90;;;19.58;68.03;99740.78;4987883;28;20502;-50
2021/05/12 09:30:49;;;;;;;0.20;0.00;;;20.50;99.90;;;19.64;68.01;99735.44;4980174;28;20034;-46
2021/05/12 09:33:30;;;;;;;0.25;0.10;;;20.40;99.90;;;19.59;67.62;99732.63;4987501;28;20146;-50
2021/05/12 09:35:56;;;;;;;0.20;0.00;;;20.40;99.90;;;19.83;67.57;99741.50;4986486;28;20104;-47
2021/05/12 09:38:26;;;;;;;0.10;0.08;;;20.40;99.90;;;20.01;66.93;99743.31;4987034;28;20026;-46
2021/05/12 09:41:02;;;;;;;0.15;0.00;;;20.60;99.90;;;20.06;65.18;99748.72;4986755;28;20449;-47
2021/05/12 09:43:30;;;;;;;0.75;0.00;;;20.70;99.90;;;19.84;66.51;99740.50;4985886;28;20211;-45
2021/05/12 09:46:24;;;;;;;0.15;0.00;;;20.60;99.90;;;19.93;65.17;99743.59;4985388;28;20046;-45
2021/05/12 09:48:59;;;;;;;0.30;0.00;;;20.60;99.90;;;19.98;65.26;99754.31;4986928;28;20490;-47
2021/05/12 09:51:40;;;;;;;0.52;0.10;;;20.70;99.90;;;20.24;64.72;99755.81;4985506;28;20371;-46
2021/05/12 09:54:09;;;;;;;1.65;0.00;;;20.80;99.90;;;20.46;63.25;99754.31;4985903;28;21478;-49
2021/05/12 09:56:58;;;;;;;0.10;0.00;;;21.00;99.90;;;20.58;61.38;99752.50;4986893;28;20049;-46
2021/05/12 09:59:35;;;;;;;0.57;0.00;;;21.20;99.90;;;20.74;61.44;99753.69;4986528;28;20149;-48
2021/05/12 10:02:03;;;;;;;1.70;0.00;;;21.40;99.90;;;21.06;61.10;99759.47;4985275;28;20057;-46
2021/05/12 10:04:43;;;;;;;0.30;0.00;;;21.60;99.90;;;21.02;60.58;99763.59;4988625;28;20058;-45
2021/05/12 10:07:27;;;;;;;0.30;0.00;;;21.70;99.90;;;20.76;60.79;99757.72;4990254;28;20477;-47
2021/05/12 10:09:55;;;;;;;0.30;0.00;;;21.60;99.40;;;20.41;62.90;99764.75;4989179;28;20053;-46
2021/05/12 10:12:23;;;;;;;1.02;0.10;;;21.40;99.90;;;19.97;64.02;99765.94;4973600;28;20058;-46
2021/05/12 10:14:52;;;;;;;0.28;0.00;;;21.00;99.90;;;19.98;64.50;99763.06;4991366;28;20034;-47
2021/05/12 10:17:20;;;;;;;0.30;0.00;;;20.90;99.90;;;19.98;64.62;99765.72;4991504;28;20058;-47
2021/05/12 10:19:49;;;;;;;0.25;0.10;;;20.80;99.90;;;20.12;64.36;99764.50;4990593;28;20026;-49
2021/05/12 10:22:16;;;;;;;0.55;0.17;;;20.90;99.90;;;19.99;64.31;99759.38;4990245;28;20045;-46
2021/05/12 10:24:46;;;;;;;0.50;0.10;;;20.90;99.90;;;19.54;65.45;99764.19;4990378;28;20381;-49
2021/05/12 10:27:12;;;;;;;0.30;0.10;;;20.50;99.90;;;19.04;67.39;99758.97;4991265;28;20071;-48